Guantanamo Bay NAS, Cuba
Current Conditions -  °F | °C
As of 11:56 PM on Wednesday 17 Dec 2014 (Local Time) from MUGM Reporting Station
Scattered Clouds Scattered Clouds  
Wind Chill: 76°   Ceiling: Unl
Heat Index: 76°   Visibility: 6mi
Dew Point: 69°   Wind: 6mph
Humidity: 79%   Direction: 330°NNW
Pressure: 30.07"   Gusts: NA
Location:  19.91°N, 75.2°W
Report Text: MUGM 180356Z 33005KT 9999 SCT090 24/21 A3007 RMK SLP182 T02440206
Loading
Personal Weather Stations






























Interactive Weather Map New forecast layout! Learn more

10-Day Weather Forecast

Advertisements
Track Severe Weather on mobile